Time;durP1;ratioP1;P1;durP2;ratioP2;P2;SDS_P1;SDS_P2;PMS_P1;PMS_P2;Temp;Humidity;BMP_temperature;BMP_pressure;BME280_temperature;BME280_humidity;BME280_pressure;Samples;Min_cycle;Max_cycle;Signal;HPM_P1;HPM_P2
2023/04/23 00:06:39;;;;;;;10.10;7.60;;;;;;;9.40;51.26;99143.48;437565;1254;139079;-67
2023/04/23 00:16:45;;;;;;;14.50;8.50;;;;;;;9.27;51.50;99138.86;437118;1251;138715;-66
2023/04/23 00:26:51;;;;;;;11.40;7.40;;;;;;;9.12;52.32;99135.16;437305;1251;139605;-66
2023/04/23 00:36:57;;;;;;;10.90;8.40;;;;;;;9.01;52.66;99135.54;436690;1250;138207;-65
2023/04/23 00:47:04;;;;;;;11.90;8.80;;;;;;;8.84;53.36;99126.61;436274;1251;138862;-65
2023/04/23 00:57:10;;;;;;;10.30;7.70;;;;;;;8.70;53.64;99121.03;436759;1250;138180;-66
2023/04/23 01:07:16;;;;;;;9.80;7.60;;;;;;;8.56;54.01;99117.09;436690;1251;139171;-66
2023/04/23 01:17:22;;;;;;;13.60;9.20;;;;;;;8.39;54.35;99118.27;436528;1254;138158;-66
2023/04/23 01:27:29;;;;;;;17.20;8.80;;;;;;;8.22;54.76;99122.09;436568;1250;138539;-67
2023/04/23 01:37:38;;;;;;;14.70;9.20;;;;;;;8.10;55.36;99120.19;437128;1254;139016;-64
2023/04/23 01:47:44;;;;;;;11.80;8.40;;;;;;;8.04;55.57;99115.02;436639;1254;137791;-66
2023/04/23 01:57:50;;;;;;;9.60;7.40;;;;;;;8.01;55.90;99109.59;436990;1252;138977;-66
2023/04/23 02:07:56;;;;;;;10.40;7.80;;;;;;;7.94;55.83;99103.04;436940;1251;138154;-67
2023/04/23 02:18:01;;;;;;;10.40;7.60;;;;;;;7.82;56.14;99103.76;437057;1251;139324;-66
2023/04/23 02:28:07;;;;;;;12.00;8.00;;;;;;;7.66;56.65;99097.23;436563;1251;139482;-65
2023/04/23 02:38:13;;;;;;;11.20;7.90;;;;;;;7.61;57.13;99092.32;436576;1254;139466;-64
2023/04/23 02:48:20;;;;;;;11.60;8.40;;;;;;;7.52;57.30;99084.44;436564;1254;137837;-64
2023/04/23 02:58:26;;;;;;;14.70;8.90;;;;;;;7.40;57.69;99081.66;437346;1254;139401;-67
2023/04/23 03:08:31;;;;;;;12.10;7.40;;;;;;;7.35;58.17;99079.90;437044;1253;139361;-67
2023/04/23 03:18:37;;;;;;;14.10;9.70;;;;;;;7.29;58.55;99088.06;437235;1254;139448;-66
2023/04/23 03:28:43;;;;;;;15.20;10.60;;;;;;;7.22;58.75;99087.60;436725;1254;138811;-67
2023/04/23 03:38:49;;;;;;;12.70;10.40;;;;;;;7.18;59.09;99085.20;436530;1254;138273;-66
2023/04/23 03:48:54;;;;;;;12.60;9.80;;;;;;;7.23;59.40;99079.53;436211;1254;139285;-67
2023/04/23 03:59:00;;;;;;;15.90;10.80;;;;;;;7.30;59.33;99074.75;436496;1254;139745;-66
2023/04/23 04:09:07;;;;;;;15.80;10.50;;;;;;;7.46;59.58;99071.08;436538;1250;138629;-66
2023/04/23 04:19:13;;;;;;;12.40;11.10;;;;;;;7.67;59.43;99069.29;436842;1251;139224;-65
2023/04/23 04:29:20;;;;;;;11.10;9.40;;;;;;;7.95;59.13;99074.08;436307;1251;139081;-66
2023/04/23 04:39:25;;;;;;;14.60;9.90;;;;;;;8.29;58.68;99070.73;436499;1250;139174;-65
2023/04/23 04:49:31;;;;;;;13.30;9.80;;;;;;;8.65;57.95;99066.43;436633;1254;139452;-67
2023/04/23 04:59:37;;;;;;;14.80;9.60;;;;;;;9.06;57.59;99070.95;436907;1250;137924;-67
2023/04/23 05:09:43;;;;;;;13.20;10.30;;;;;;;10.39;56.59;99069.84;436714;1250;139362;-67
2023/04/23 05:19:50;;;;;;;11.20;9.00;;;;;;;17.66;49.35;99060.79;437144;1251;140798;-68
2023/04/23 05:29:56;;;;;;;11.60;8.60;;;;;;;23.50;41.76;99053.30;437114;1253;139844;-67
2023/04/23 05:40:05;;;;;;;9.20;8.20;;;;;;;27.48;35.79;99046.23;436916;1254;138845;-69
2023/04/23 05:50:12;;;;;;;8.50;7.70;;;;;;;30.09;31.69;99046.58;437727;1250;139489;-68
2023/04/23 06:00:18;;;;;;;8.80;7.90;;;;;;;31.96;28.07;99043.70;437439;1254;138422;-72
2023/04/23 06:10:24;;;;;;;7.90;7.10;;;;;;;34.09;25.88;99039.46;436767;1254;138178;-68
2023/04/23 06:20:31;;;;;;;8.10;7.30;;;;;;;36.04;23.80;99032.56;437181;1251;138527;-68
2023/04/23 06:30:36;;;;;;;8.20;7.50;;;;;;;37.83;22.14;99032.32;436961;1250;138517;-69
2023/04/23 06:40:42;;;;;;;8.10;7.50;;;;;;;38.06;20.90;99035.80;436495;1251;138910;-67
2023/04/23 06:50:48;;;;;;;7.20;6.50;;;;;;;39.24;20.08;99034.27;436307;1251;139037;-69
2023/04/23 07:00:54;;;;;;;7.40;6.80;;;;;;;40.84;18.99;99025.73;436360;1251;139127;-68
2023/04/23 07:11:00;;;;;;;8.60;7.50;;;;;;;41.37;18.13;99018.12;436366;1254;158428;-69
2023/04/23 07:21:06;;;;;;;7.60;6.80;;;;;;;41.67;17.91;99011.02;436250;1251;138815;-69
2023/04/23 07:31:11;;;;;;;7.20;6.60;;;;;;;42.20;16.98;99007.38;436298;1250;138768;-68
2023/04/23 07:41:17;;;;;;;6.90;6.40;;;;;;;41.42;16.57;98999.23;436294;1250;138211;-68
2023/04/23 07:51:25;;;;;;;5.90;5.10;;;;;;;42.72;16.49;98989.80;436036;1251;138376;-68
2023/04/23 08:01:32;;;;;;;5.70;4.50;;;;;;;45.29;16.09;98984.52;436347;1251;138084;-68
2023/04/23 08:11:37;;;;;;;4.90;4.50;;;;;;;46.04;15.08;98978.30;436615;1250;138736;-68
2023/04/23 08:21:43;;;;;;;6.50;5.10;;;;;;;46.06;14.59;98978.09;436468;1251;138522;-66
2023/04/23 08:31:49;;;;;;;49.70;8.90;;;;;;;39.99;15.89;98971.02;436343;1254;140051;-65
2023/04/23 08:41:55;;;;;;;8.00;5.50;;;;;;;32.78;19.00;98966.95;436618;1251;138188;-66
2023/04/23 08:52:10;;;;;;;22.50;5.70;;;;;;;29.56;21.61;98963.34;436555;1251;138314;-64
2023/04/23 09:02:18;;;;;;;6.70;5.50;;;;;;;27.09;23.80;98956.34;437222;1251;138655;-65
2023/04/23 09:12:24;;;;;;;5.80;4.00;;;;;;;25.76;25.96;98948.97;436975;1253;138286;-60
2023/04/23 09:22:45;;;;;;;5.90;3.90;;;;;;;25.47;26.24;98938.04;436966;1250;138330;-64
2023/04/23 09:32:53;;;;;;;4.40;3.70;;;;;;;24.90;26.30;98924.79;436389;1251;138133;-62
2023/04/23 09:43:03;;;;;;;6.50;4.30;;;;;;;24.30;26.79;98923.01;436727;1250;138948;-63
2023/04/23 09:53:10;;;;;;;4.80;4.10;;;;;;;24.01;27.47;98908.80;436857;1251;139184;-61
2023/04/23 10:03:15;;;;;;;5.80;4.60;;;;;;;23.98;27.74;98899.70;436591;1250;138582;-63
2023/04/23 10:13:21;;;;;;;6.00;2.90;;;;;;;23.56;27.90;98887.05;436856;1255;138200;-65
2023/04/23 10:23:28;;;;;;;4.30;2.90;;;;;;;23.45;26.85;98873.36;436775;1251;140402;-62
2023/04/23 10:33:36;;;;;;;6.60;2.80;;;;;;;23.09;26.72;98860.58;437140;1255;139570;-63
2023/04/23 10:44:01;;;;;;;4.60;2.70;;;;;;;22.65;26.99;98855.45;436826;1250;139123;-63
2023/04/23 10:54:08;;;;;;;4.40;3.00;;;;;;;22.38;27.20;98844.85;437150;1256;137945;-63
2023/04/23 11:04:25;;;;;;;4.00;3.00;;;;;;;22.17;27.50;98840.52;436752;1251;138908;-62
2023/04/23 11:14:42;;;;;;;4.90;3.20;;;;;;;22.27;27.81;98831.98;436750;1250;138242;-61
2023/04/23 11:24:48;;;;;;;3.80;3.00;;;;;;;22.07;28.06;98823.85;436860;1253;138690;-61
2023/04/23 11:34:57;;;;;;;6.00;3.80;;;;;;;22.26;28.44;98818.42;436651;1250;139040;-61
2023/04/23 11:45:04;;;;;;;6.50;2.50;;;;;;;22.35;28.38;98808.83;436165;1251;139237;-61
2023/04/23 11:55:11;;;;;;;5.20;3.10;;;;;;;22.30;28.35;98805.91;436347;1255;139170;-61
2023/04/23 12:05:19;;;;;;;3.80;2.60;;;;;;;22.41;28.53;98795.14;436973;1250;140094;-62
2023/04/23 12:15:23;;;;;;;;;;;;;;;22.63;28.52;98794.20;436275;1251;138401;-62
2023/04/23 12:25:29;;;;;;;2.80;1.90;;;;;;;22.44;28.09;98783.92;436626;1251;125658;-63
2023/04/23 12:35:43;;;;;;;2.60;1.90;;;;;;;22.35;28.14;98770.93;436221;1255;138950;-61
2023/04/23 12:45:50;;;;;;;4.00;2.60;;;;;;;22.27;28.35;98769.62;436902;1251;139092;-59
2023/04/23 12:55:56;;;;;;;5.50;2.70;;;;;;;22.26;28.29;98760.30;440253;1254;138580;-60
2023/04/23 13:06:02;;;;;;;2.60;2.40;;;;;;;22.49;28.17;98753.64;436230;1251;138695;-60
2023/04/23 13:16:08;;;;;;;4.80;2.80;;;;;;;22.27;28.28;98742.98;436718;1255;138606;-61
2023/04/23 13:26:14;;;;;;;4.60;2.70;;;;;;;22.12;28.52;98726.53;436575;1250;138621;-61
2023/04/23 13:36:20;;;;;;;3.90;2.30;;;;;;;21.91;28.61;98727.98;436897;1255;139045;-61
2023/04/23 13:46:26;;;;;;;5.30;2.80;;;;;;;21.63;28.90;98717.29;436816;1250;139118;-60
2023/04/23 13:56:33;;;;;;;5.20;2.80;;;;;;;21.91;29.13;98702.48;437203;1251;139598;-60
2023/04/23 14:06:39;;;;;;;3.10;2.10;;;;;;;22.07;29.01;98698.85;437275;1256;138967;-60
2023/04/23 14:16:45;;;;;;;2.90;2.20;;;;;;;22.12;28.83;98686.42;436970;1254;138902;-59
2023/04/23 14:26:50;;;;;;;2.60;2.00;;;;;;;22.27;29.01;98683.39;436606;1254;139842;-60
2023/04/23 14:36:56;;;;;;;5.40;2.60;;;;;;;22.72;28.73;98679.80;436678;1250;138310;-60
2023/04/23 14:47:02;;;;;;;6.20;3.60;;;;;;;22.69;28.47;98670.00;436861;1256;138147;-61
2023/04/23 14:57:08;;;;;;;11.60;9.40;;;;;;;22.69;28.78;98663.90;437365;1255;138873;-60
2023/04/23 15:07:14;;;;;;;3.50;2.50;;;;;;;22.77;28.65;98659.65;436948;1255;139359;-59
2023/04/23 15:17:20;;;;;;;4.10;2.50;;;;;;;22.68;28.73;98653.40;436658;1254;138523;-61
2023/04/23 15:27:26;;;;;;;3.50;1.90;;;;;;;22.57;28.94;98646.73;436983;1251;139064;-61
2023/04/23 15:37:32;;;;;;;1.90;1.60;;;;;;;22.39;28.77;98641.75;437279;1256;138198;-61
2023/04/23 15:47:38;;;;;;;3.40;2.50;;;;;;;22.08;28.94;98640.14;436854;1256;139034;-62
2023/04/23 15:57:45;;;;;;;4.80;2.50;;;;;;;21.82;29.39;98634.09;436937;1251;138554;-62
2023/04/23 16:07:51;;;;;;;3.60;2.40;;;;;;;21.56;29.70;98626.77;437744;1252;138714;-61
2023/04/23 16:17:58;;;;;;;3.90;2.20;;;;;;;21.31;30.00;98624.96;437023;1251;139830;-61
2023/04/23 16:28:03;;;;;;;;;;;;;;;21.11;30.59;98620.31;436513;1254;138590;-60
2023/04/23 16:38:10;;;;;;;3.50;2.20;;;;;;;20.77;31.23;98617.25;436179;1254;124913;-60
2023/04/23 16:48:18;;;;;;;3.60;2.50;;;;;;;20.28;32.15;98621.29;436142;1251;139400;-61
2023/04/23 16:58:24;;;;;;;8.60;2.40;;;;;;;19.86;33.09;98620.16;437073;1254;139400;-60
2023/04/23 17:08:30;;;;;;;8.80;3.50;;;;;;;19.44;34.22;98625.86;436724;1251;138024;-61
2023/04/23 17:18:36;;;;;;;4.80;2.90;;;;;;;19.17;35.75;98637.70;436740;1253;138818;-60
2023/04/23 17:28:42;;;;;;;5.50;3.80;;;;;;;18.87;37.24;98655.23;436324;1254;140046;-61
2023/04/23 17:38:48;;;;;;;8.50;3.30;;;;;;;18.43;39.37;98658.71;436944;1251;138627;-62
2023/04/23 17:48:53;;;;;;;6.60;3.40;;;;;;;17.86;41.03;98643.70;436869;1254;139783;-61
2023/04/23 17:58:59;;;;;;;4.40;3.40;;;;;;;17.38;42.50;98632.57;436630;1251;139127;-60
2023/04/23 18:09:05;;;;;;;5.70;3.30;;;;;;;17.07;43.69;98647.72;436386;1251;138020;-61
2023/04/23 18:19:11;;;;;;;11.50;3.60;;;;;;;16.81;44.67;98663.48;436946;1254;138622;-61
2023/04/23 18:29:18;;;;;;;4.70;3.20;;;;;;;16.40;46.22;98671.75;437037;1254;139835;-62
2023/04/23 18:39:25;;;;;;;9.00;3.50;;;;;;;15.90;47.44;98677.79;436996;1254;139612;-61
2023/04/23 18:49:44;;;;;;;;;;;;;;;15.43;48.60;98690.02;436652;1251;139996;-61
2023/04/23 18:59:48;;;;;;;;;;;;;;;14.97;49.57;98700.34;436707;1251;124898;-62
2023/04/23 19:09:54;;;;;;;8.90;5.30;;;;;;;14.57;51.11;98704.94;436464;1251;124545;-62
2023/04/23 19:20:00;;;;;;;11.40;4.90;;;;;;;14.22;52.17;98702.38;436728;1254;161457;-63
2023/04/23 19:30:09;;;;;;;12.40;10.10;;;;;;;13.89;53.47;98705.29;436461;1251;138158;-64
2023/04/23 19:40:15;;;;;;;11.80;7.50;;;;;;;13.60;54.29;98706.13;436763;1253;138972;-62
2023/04/23 19:50:22;;;;;;;13.30;7.20;;;;;;;13.32;55.44;98702.56;436752;1251;139971;-61
2023/04/23 20:00:30;;;;;;;10.20;6.70;;;;;;;13.04;56.50;98705.61;436856;1250;139422;-61
2023/04/23 20:10:35;;;;;;;18.40;11.10;;;;;;;12.71;57.63;98703.52;436867;1251;138490;-61
2023/04/23 20:20:41;;;;;;;15.80;10.80;;;;;;;12.40;58.48;98703.40;436985;1254;139647;-60
2023/04/23 20:30:47;;;;;;;21.50;13.30;;;;;;;12.12;59.43;98695.05;436798;1254;139010;-61
2023/04/23 20:40:53;;;;;;;20.70;13.20;;;;;;;11.91;60.34;98690.45;436821;1254;138772;-59
2023/04/23 20:50:59;;;;;;;20.20;15.00;;;;;;;11.76;60.96;98693.63;436711;1253;140162;-62
2023/04/23 21:01:06;;;;;;;21.90;16.30;;;;;;;11.55;61.76;98685.17;437109;1251;140923;-65
2023/04/23 21:11:16;;;;;;;27.60;16.40;;;;;;;11.37;62.43;98679.25;437142;1254;139732;-62
2023/04/23 21:21:26;;;;;;;24.50;16.10;;;;;;;11.21;63.19;98673.85;436824;1254;141240;-61
2023/04/23 21:31:42;;;;;;;26.10;19.80;;;;;;;11.06;63.76;98667.23;436839;1250;140229;-61
2023/04/23 21:41:49;;;;;;;26.60;17.10;;;;;;;10.89;64.24;98669.06;436683;1251;139302;-59
2023/04/23 21:51:54;;;;;;;17.40;13.50;;;;;;;10.79;65.04;98664.12;436562;1254;139496;-60
2023/04/23 22:02:00;;;;;;;21.80;12.80;;;;;;;10.81;65.81;98663.40;436138;1254;139648;-60
2023/04/23 22:12:06;;;;;;;17.80;15.80;;;;;;;10.83;66.28;98660.68;436114;1251;139804;-56
2023/04/23 22:22:12;;;;;;;19.00;14.70;;;;;;;10.99;66.65;98660.10;436480;1251;139929;-57
2023/04/23 22:32:18;;;;;;;18.40;13.60;;;;;;;11.01;66.07;98656.77;436471;1254;141664;-56
2023/04/23 22:42:24;;;;;;;18.40;13.00;;;;;;;10.95;66.09;98648.49;436478;1254;140362;-57
2023/04/23 22:52:30;;;;;;;18.50;14.00;;;;;;;10.75;66.43;98644.81;436481;1254;140675;-59
2023/04/23 23:02:36;;;;;;;18.00;14.10;;;;;;;10.67;67.00;98637.20;437235;1251;139290;-58
2023/04/23 23:12:42;;;;;;;18.80;13.30;;;;;;;10.66;67.32;98626.64;436757;1250;140371;-58
2023/04/23 23:22:47;;;;;;;17.90;12.70;;;;;;;10.69;67.49;98618.67;436541;1254;140558;-58
2023/04/23 23:32:53;;;;;;;18.90;12.80;;;;;;;10.59;67.47;98610.16;436224;1250;140977;-59
2023/04/23 23:42:59;;;;;;;15.70;11.70;;;;;;;10.53;67.78;98603.31;436507;1250;140413;-58
2023/04/23 23:53:04;;;;;;;15.40;13.20;;;;;;;10.50;68.09;98594.40;436415;1252;140823;-58
